Preview of NWS' New Version of Forecast
This preview is not operational and should not be used for support decisions.

Terminal Aerodrome Forecast (TAF)

Issued by National Weather Service (NWS)

                            
000
FTUS42 KKEY 210612 RRA
TAFEYW
TAF
KEYW 210612Z 2106/2206 02008KT P6SM SCT020 SCT045
     FM210700 01007KT P6SM SCT015 SCT040
     FM211900 34012G19KT P6SM SCT020 SCT045=